sensor_id;sensor_type;location;lat;lon;timestamp;P1;durP1;ratioP1;P2;durP2;ratioP2
15112;SDS011;7657;50.140;7.076;2022-12-07T00:00:07;12.13;;;7.77;;
15112;SDS011;7657;50.140;7.076;2022-12-07T00:02:35;12.03;;;7.67;;
15112;SDS011;7657;50.140;7.076;2022-12-07T00:05:02;12.50;;;7.57;;
15112;SDS011;7657;50.140;7.076;2022-12-07T00:07:29;12.27;;;8.07;;
15112;SDS011;7657;50.140;7.076;2022-12-07T00:09:56;13.80;;;7.40;;
15112;SDS011;7657;50.140;7.076;2022-12-07T00:12:23;13.20;;;8.43;;
15112;SDS011;7657;50.140;7.076;2022-12-07T00:14:51;14.50;;;8.33;;
15112;SDS011;7657;50.140;7.076;2022-12-07T00:17:18;14.30;;;8.30;;
15112;SDS011;7657;50.140;7.076;2022-12-07T00:19:45;12.60;;;8.03;;
15112;SDS011;7657;50.140;7.076;2022-12-07T00:22:12;13.20;;;7.67;;
15112;SDS011;7657;50.140;7.076;2022-12-07T00:24:39;12.13;;;8.27;;
15112;SDS011;7657;50.140;7.076;2022-12-07T00:27:05;15.17;;;9.07;;
15112;SDS011;7657;50.140;7.076;2022-12-07T00:29:32;14.03;;;8.90;;
15112;SDS011;7657;50.140;7.076;2022-12-07T00:32:00;15.83;;;9.50;;
15112;SDS011;7657;50.140;7.076;2022-12-07T00:34:27;17.40;;;9.60;;
15112;SDS011;7657;50.140;7.076;2022-12-07T00:36:54;14.63;;;8.90;;
15112;SDS011;7657;50.140;7.076;2022-12-07T00:39:21;14.97;;;8.40;;
15112;SDS011;7657;50.140;7.076;2022-12-07T00:41:48;18.37;;;8.90;;
15112;SDS011;7657;50.140;7.076;2022-12-07T00:44:15;15.63;;;9.10;;
15112;SDS011;7657;50.140;7.076;2022-12-07T00:46:42;16.50;;;9.30;;
15112;SDS011;7657;50.140;7.076;2022-12-07T00:49:11;17.33;;;9.97;;
15112;SDS011;7657;50.140;7.076;2022-12-07T00:51:38;14.50;;;9.17;;
15112;SDS011;7657;50.140;7.076;2022-12-07T00:54:05;15.97;;;9.90;;
15112;SDS011;7657;50.140;7.076;2022-12-07T00:56:32;16.07;;;10.07;;
15112;SDS011;7657;50.140;7.076;2022-12-07T00:59:00;15.90;;;9.60;;
15112;SDS011;7657;50.140;7.076;2022-12-07T01:01:29;15.93;;;10.00;;
15112;SDS011;7657;50.140;7.076;2022-12-07T01:03:56;16.70;;;10.30;;
15112;SDS011;7657;50.140;7.076;2022-12-07T01:06:27;17.77;;;10.70;;
15112;SDS011;7657;50.140;7.076;2022-12-07T01:08:55;16.57;;;9.90;;
15112;SDS011;7657;50.140;7.076;2022-12-07T01:11:22;17.37;;;10.50;;
15112;SDS011;7657;50.140;7.076;2022-12-07T01:13:51;18.87;;;10.37;;
15112;SDS011;7657;50.140;7.076;2022-12-07T01:16:19;17.50;;;11.17;;
15112;SDS011;7657;50.140;7.076;2022-12-07T01:18:48;17.30;;;10.53;;
15112;SDS011;7657;50.140;7.076;2022-12-07T01:21:18;18.10;;;10.93;;
15112;SDS011;7657;50.140;7.076;2022-12-07T01:23:48;16.40;;;10.47;;
15112;SDS011;7657;50.140;7.076;2022-12-07T01:26:16;19.90;;;11.57;;
15112;SDS011;7657;50.140;7.076;2022-12-07T01:28:44;18.53;;;11.03;;
15112;SDS011;7657;50.140;7.076;2022-12-07T01:31:11;18.27;;;11.30;;
15112;SDS011;7657;50.140;7.076;2022-12-07T01:33:40;20.07;;;12.00;;
15112;SDS011;7657;50.140;7.076;2022-12-07T01:36:12;21.03;;;11.70;;
15112;SDS011;7657;50.140;7.076;2022-12-07T01:38:41;20.87;;;12.60;;
15112;SDS011;7657;50.140;7.076;2022-12-07T01:41:10;21.07;;;12.13;;
15112;SDS011;7657;50.140;7.076;2022-12-07T01:44:06;21.17;;;12.10;;
15112;SDS011;7657;50.140;7.076;2022-12-07T01:46:37;27.33;;;14.57;;
15112;SDS011;7657;50.140;7.076;2022-12-07T01:49:04;25.57;;;14.10;;
15112;SDS011;7657;50.140;7.076;2022-12-07T01:51:35;21.03;;;12.33;;
15112;SDS011;7657;50.140;7.076;2022-12-07T01:54:06;21.27;;;12.30;;
15112;SDS011;7657;50.140;7.076;2022-12-07T01:56:34;20.33;;;12.30;;
15112;SDS011;7657;50.140;7.076;2022-12-07T01:59:04;21.47;;;12.57;;
15112;SDS011;7657;50.140;7.076;2022-12-07T02:01:31;21.43;;;12.40;;
15112;SDS011;7657;50.140;7.076;2022-12-07T02:03:58;23.13;;;12.53;;
15112;SDS011;7657;50.140;7.076;2022-12-07T02:06:25;19.03;;;11.93;;
15112;SDS011;7657;50.140;7.076;2022-12-07T02:08:52;18.70;;;11.37;;
15112;SDS011;7657;50.140;7.076;2022-12-07T02:11:20;20.50;;;12.40;;
15112;SDS011;7657;50.140;7.076;2022-12-07T02:13:49;20.90;;;12.17;;
15112;SDS011;7657;50.140;7.076;2022-12-07T02:16:21;19.97;;;11.97;;
15112;SDS011;7657;50.140;7.076;2022-12-07T02:18:57;20.07;;;12.60;;
15112;SDS011;7657;50.140;7.076;2022-12-07T02:21:37;20.77;;;12.20;;
15112;SDS011;7657;50.140;7.076;2022-12-07T02:24:19;21.60;;;12.43;;
15112;SDS011;7657;50.140;7.076;2022-12-07T02:30:03;20.27;;;11.70;;
15112;SDS011;7657;50.140;7.076;2022-12-07T02:32:33;19.63;;;11.17;;
15112;SDS011;7657;50.140;7.076;2022-12-07T02:35:09;19.60;;;11.53;;
15112;SDS011;7657;50.140;7.076;2022-12-07T02:37:39;18.10;;;11.73;;
15112;SDS011;7657;50.140;7.076;2022-12-07T02:40:10;20.67;;;12.10;;
15112;SDS011;7657;50.140;7.076;2022-12-07T02:42:44;21.97;;;13.07;;
15112;SDS011;7657;50.140;7.076;2022-12-07T02:45:15;20.53;;;11.70;;
15112;SDS011;7657;50.140;7.076;2022-12-07T02:47:47;18.33;;;10.60;;
15112;SDS011;7657;50.140;7.076;2022-12-07T02:50:18;18.30;;;10.97;;
15112;SDS011;7657;50.140;7.076;2022-12-07T02:52:45;19.77;;;11.70;;
15112;SDS011;7657;50.140;7.076;2022-12-07T02:55:12;18.37;;;11.63;;
15112;SDS011;7657;50.140;7.076;2022-12-07T02:57:48;19.67;;;11.20;;
15112;SDS011;7657;50.140;7.076;2022-12-07T03:00:25;18.10;;;11.27;;
15112;SDS011;7657;50.140;7.076;2022-12-07T03:02:53;18.57;;;11.00;;
15112;SDS011;7657;50.140;7.076;2022-12-07T03:05:38;15.70;;;10.40;;
15112;SDS011;7657;50.140;7.076;2022-12-07T03:08:18;18.53;;;10.60;;
15112;SDS011;7657;50.140;7.076;2022-12-07T03:10:54;17.70;;;10.83;;
15112;SDS011;7657;50.140;7.076;2022-12-07T03:13:25;19.43;;;11.73;;
15112;SDS011;7657;50.140;7.076;2022-12-07T03:16:00;19.30;;;11.23;;
15112;SDS011;7657;50.140;7.076;2022-12-07T03:18:33;21.07;;;11.80;;
15112;SDS011;7657;50.140;7.076;2022-12-07T03:21:05;21.30;;;11.90;;
15112;SDS011;7657;50.140;7.076;2022-12-07T03:23:36;21.67;;;11.93;;
15112;SDS011;7657;50.140;7.076;2022-12-07T03:26:06;16.73;;;10.63;;
15112;SDS011;7657;50.140;7.076;2022-12-07T03:28:39;20.93;;;11.53;;
15112;SDS011;7657;50.140;7.076;2022-12-07T03:31:10;24.23;;;12.57;;
15112;SDS011;7657;50.140;7.076;2022-12-07T03:33:43;18.77;;;10.80;;
15112;SDS011;7657;50.140;7.076;2022-12-07T03:36:15;18.07;;;10.67;;
15112;SDS011;7657;50.140;7.076;2022-12-07T03:38:49;17.57;;;10.47;;
15112;SDS011;7657;50.140;7.076;2022-12-07T03:41:22;18.27;;;11.03;;
15112;SDS011;7657;50.140;7.076;2022-12-07T03:43:52;17.80;;;10.63;;
15112;SDS011;7657;50.140;7.076;2022-12-07T03:46:24;16.70;;;9.97;;
15112;SDS011;7657;50.140;7.076;2022-12-07T03:49:04;17.83;;;10.33;;
15112;SDS011;7657;50.140;7.076;2022-12-07T03:51:37;17.73;;;10.67;;
15112;SDS011;7657;50.140;7.076;2022-12-07T03:54:09;16.53;;;9.50;;
15112;SDS011;7657;50.140;7.076;2022-12-07T03:56:41;15.23;;;9.70;;
15112;SDS011;7657;50.140;7.076;2022-12-07T03:59:09;16.80;;;9.63;;
15112;SDS011;7657;50.140;7.076;2022-12-07T04:01:42;18.63;;;10.40;;
15112;SDS011;7657;50.140;7.076;2022-12-07T04:04:09;17.93;;;10.63;;
15112;SDS011;7657;50.140;7.076;2022-12-07T04:06:37;17.47;;;10.67;;
15112;SDS011;7657;50.140;7.076;2022-12-07T04:09:04;16.90;;;10.20;;
15112;SDS011;7657;50.140;7.076;2022-12-07T04:11:30;15.90;;;10.03;;
15112;SDS011;7657;50.140;7.076;2022-12-07T04:13:57;15.90;;;9.67;;
15112;SDS011;7657;50.140;7.076;2022-12-07T04:16:43;17.13;;;9.70;;
15112;SDS011;7657;50.140;7.076;2022-12-07T04:19:10;15.23;;;9.77;;
15112;SDS011;7657;50.140;7.076;2022-12-07T04:21:37;15.30;;;9.50;;
15112;SDS011;7657;50.140;7.076;2022-12-07T04:24:04;17.20;;;10.27;;
15112;SDS011;7657;50.140;7.076;2022-12-07T04:26:32;15.50;;;9.17;;
15112;SDS011;7657;50.140;7.076;2022-12-07T04:28:58;17.80;;;9.80;;
15112;SDS011;7657;50.140;7.076;2022-12-07T04:31:25;15.23;;;9.30;;
15112;SDS011;7657;50.140;7.076;2022-12-07T04:33:54;15.90;;;9.47;;
15112;SDS011;7657;50.140;7.076;2022-12-07T04:36:21;16.87;;;10.47;;
15112;SDS011;7657;50.140;7.076;2022-12-07T04:38:48;20.37;;;10.47;;
15112;SDS011;7657;50.140;7.076;2022-12-07T04:41:15;16.70;;;9.80;;
15112;SDS011;7657;50.140;7.076;2022-12-07T04:43:42;16.90;;;9.70;;
15112;SDS011;7657;50.140;7.076;2022-12-07T04:46:08;17.40;;;10.37;;
15112;SDS011;7657;50.140;7.076;2022-12-07T04:48:35;17.13;;;9.33;;
15112;SDS011;7657;50.140;7.076;2022-12-07T04:51:04;16.90;;;9.70;;
15112;SDS011;7657;50.140;7.076;2022-12-07T04:53:31;14.27;;;8.83;;
15112;SDS011;7657;50.140;7.076;2022-12-07T04:55:58;17.27;;;9.80;;
15112;SDS011;7657;50.140;7.076;2022-12-07T04:58:26;15.73;;;9.60;;
15112;SDS011;7657;50.140;7.076;2022-12-07T05:00:53;15.30;;;8.97;;
15112;SDS011;7657;50.140;7.076;2022-12-07T05:03:20;16.17;;;9.33;;
15112;SDS011;7657;50.140;7.076;2022-12-07T05:05:47;16.30;;;9.30;;
15112;SDS011;7657;50.140;7.076;2022-12-07T05:08:16;17.63;;;9.83;;
15112;SDS011;7657;50.140;7.076;2022-12-07T05:10:42;17.07;;;9.47;;
15112;SDS011;7657;50.140;7.076;2022-12-07T05:13:09;16.77;;;10.57;;
15112;SDS011;7657;50.140;7.076;2022-12-07T05:15:36;15.97;;;10.00;;
15112;SDS011;7657;50.140;7.076;2022-12-07T05:18:03;16.60;;;9.90;;
15112;SDS011;7657;50.140;7.076;2022-12-07T05:20:30;17.97;;;10.47;;
15112;SDS011;7657;50.140;7.076;2022-12-07T05:22:57;15.33;;;9.13;;
15112;SDS011;7657;50.140;7.076;2022-12-07T05:25:25;14.90;;;10.07;;
15112;SDS011;7657;50.140;7.076;2022-12-07T05:27:53;14.70;;;8.60;;
15112;SDS011;7657;50.140;7.076;2022-12-07T05:30:21;15.37;;;9.50;;
15112;SDS011;7657;50.140;7.076;2022-12-07T05:32:48;15.47;;;9.50;;
15112;SDS011;7657;50.140;7.076;2022-12-07T05:35:15;15.83;;;9.03;;
15112;SDS011;7657;50.140;7.076;2022-12-07T05:37:43;14.87;;;8.70;;
15112;SDS011;7657;50.140;7.076;2022-12-07T05:40:10;14.43;;;8.93;;
15112;SDS011;7657;50.140;7.076;2022-12-07T05:42:40;15.20;;;9.10;;
15112;SDS011;7657;50.140;7.076;2022-12-07T05:45:07;15.97;;;9.33;;
15112;SDS011;7657;50.140;7.076;2022-12-07T05:47:35;15.77;;;8.90;;
15112;SDS011;7657;50.140;7.076;2022-12-07T05:50:03;13.40;;;8.53;;
15112;SDS011;7657;50.140;7.076;2022-12-07T05:52:31;14.93;;;8.93;;
15112;SDS011;7657;50.140;7.076;2022-12-07T05:54:59;12.90;;;8.07;;
15112;SDS011;7657;50.140;7.076;2022-12-07T05:57:25;14.90;;;8.33;;
15112;SDS011;7657;50.140;7.076;2022-12-07T05:59:54;12.87;;;8.17;;
15112;SDS011;7657;50.140;7.076;2022-12-07T06:02:20;12.70;;;8.07;;
15112;SDS011;7657;50.140;7.076;2022-12-07T06:04:46;13.93;;;8.13;;
15112;SDS011;7657;50.140;7.076;2022-12-07T06:07:14;10.97;;;7.50;;
15112;SDS011;7657;50.140;7.076;2022-12-07T06:09:42;14.23;;;8.23;;
15112;SDS011;7657;50.140;7.076;2022-12-07T06:12:09;11.27;;;7.17;;
15112;SDS011;7657;50.140;7.076;2022-12-07T06:15:04;10.57;;;6.87;;
15112;SDS011;7657;50.140;7.076;2022-12-07T06:17:32;11.27;;;7.13;;
15112;SDS011;7657;50.140;7.076;2022-12-07T06:19:59;11.00;;;7.40;;
15112;SDS011;7657;50.140;7.076;2022-12-07T06:22:26;11.57;;;7.47;;
15112;SDS011;7657;50.140;7.076;2022-12-07T06:24:53;11.47;;;7.13;;
15112;SDS011;7657;50.140;7.076;2022-12-07T06:27:20;10.60;;;6.57;;
15112;SDS011;7657;50.140;7.076;2022-12-07T06:29:46;11.20;;;6.90;;
15112;SDS011;7657;50.140;7.076;2022-12-07T06:32:15;10.90;;;6.10;;
15112;SDS011;7657;50.140;7.076;2022-12-07T06:34:42;11.30;;;5.80;;
15112;SDS011;7657;50.140;7.076;2022-12-07T06:37:08;11.37;;;6.17;;
15112;SDS011;7657;50.140;7.076;2022-12-07T06:39:35;9.93;;;6.40;;
15112;SDS011;7657;50.140;7.076;2022-12-07T06:42:03;9.03;;;5.50;;
15112;SDS011;7657;50.140;7.076;2022-12-07T06:44:30;9.17;;;5.70;;
15112;SDS011;7657;50.140;7.076;2022-12-07T06:46:57;8.43;;;5.97;;
15112;SDS011;7657;50.140;7.076;2022-12-07T06:49:26;9.63;;;5.70;;
15112;SDS011;7657;50.140;7.076;2022-12-07T06:51:53;9.70;;;5.80;;
15112;SDS011;7657;50.140;7.076;2022-12-07T06:54:20;10.53;;;6.13;;
15112;SDS011;7657;50.140;7.076;2022-12-07T06:56:46;9.60;;;6.80;;
15112;SDS011;7657;50.140;7.076;2022-12-07T06:59:13;9.33;;;5.73;;
15112;SDS011;7657;50.140;7.076;2022-12-07T07:01:40;8.77;;;5.57;;
15112;SDS011;7657;50.140;7.076;2022-12-07T07:04:07;9.63;;;6.57;;
15112;SDS011;7657;50.140;7.076;2022-12-07T07:06:35;10.40;;;6.77;;
15112;SDS011;7657;50.140;7.076;2022-12-07T07:09:02;12.03;;;7.40;;
15112;SDS011;7657;50.140;7.076;2022-12-07T07:11:29;7.97;;;5.70;;
15112;SDS011;7657;50.140;7.076;2022-12-07T07:13:56;10.03;;;6.37;;
15112;SDS011;7657;50.140;7.076;2022-12-07T07:16:27;9.97;;;6.70;;
15112;SDS011;7657;50.140;7.076;2022-12-07T07:18:54;8.63;;;5.67;;
15112;SDS011;7657;50.140;7.076;2022-12-07T07:21:21;8.67;;;5.83;;
15112;SDS011;7657;50.140;7.076;2022-12-07T07:23:50;8.17;;;5.30;;
15112;SDS011;7657;50.140;7.076;2022-12-07T07:26:17;8.93;;;5.90;;
15112;SDS011;7657;50.140;7.076;2022-12-07T07:28:43;8.90;;;5.43;;
15112;SDS011;7657;50.140;7.076;2022-12-07T07:31:10;9.13;;;6.07;;
15112;SDS011;7657;50.140;7.076;2022-12-07T07:33:37;8.33;;;4.87;;
15112;SDS011;7657;50.140;7.076;2022-12-07T07:36:05;7.93;;;5.17;;
15112;SDS011;7657;50.140;7.076;2022-12-07T07:38:32;6.53;;;4.43;;
15112;SDS011;7657;50.140;7.076;2022-12-07T07:41:00;6.47;;;4.43;;
15112;SDS011;7657;50.140;7.076;2022-12-07T07:43:27;6.80;;;4.47;;
15112;SDS011;7657;50.140;7.076;2022-12-07T07:45:54;7.03;;;4.20;;
15112;SDS011;7657;50.140;7.076;2022-12-07T07:48:21;6.67;;;4.53;;
15112;SDS011;7657;50.140;7.076;2022-12-07T07:50:50;9.37;;;4.30;;
15112;SDS011;7657;50.140;7.076;2022-12-07T07:53:17;6.70;;;4.23;;
15112;SDS011;7657;50.140;7.076;2022-12-07T07:55:49;6.43;;;4.67;;
15112;SDS011;7657;50.140;7.076;2022-12-07T07:58:19;9.20;;;4.57;;
15112;SDS011;7657;50.140;7.076;2022-12-07T08:00:46;5.43;;;3.83;;
15112;SDS011;7657;50.140;7.076;2022-12-07T08:03:13;5.47;;;3.90;;
15112;SDS011;7657;50.140;7.076;2022-12-07T08:05:40;5.60;;;3.53;;
15112;SDS011;7657;50.140;7.076;2022-12-07T08:08:07;6.57;;;4.30;;
15112;SDS011;7657;50.140;7.076;2022-12-07T08:10:34;7.50;;;4.03;;
15112;SDS011;7657;50.140;7.076;2022-12-07T08:13:02;6.03;;;3.90;;
15112;SDS011;7657;50.140;7.076;2022-12-07T08:15:40;5.07;;;4.13;;
15112;SDS011;7657;50.140;7.076;2022-12-07T08:18:08;5.90;;;3.83;;
15112;SDS011;7657;50.140;7.076;2022-12-07T08:20:36;7.37;;;4.50;;
15112;SDS011;7657;50.140;7.076;2022-12-07T08:23:04;9.87;;;5.40;;
15112;SDS011;7657;50.140;7.076;2022-12-07T08:25:31;6.97;;;4.97;;
15112;SDS011;7657;50.140;7.076;2022-12-07T08:27:58;8.63;;;6.07;;
15112;SDS011;7657;50.140;7.076;2022-12-07T08:30:26;6.07;;;4.20;;
15112;SDS011;7657;50.140;7.076;2022-12-07T08:32:56;5.53;;;3.77;;
15112;SDS011;7657;50.140;7.076;2022-12-07T08:35:23;6.40;;;3.90;;
15112;SDS011;7657;50.140;7.076;2022-12-07T08:37:51;4.93;;;3.33;;
15112;SDS011;7657;50.140;7.076;2022-12-07T08:40:18;5.33;;;3.50;;
15112;SDS011;7657;50.140;7.076;2022-12-07T08:42:48;5.07;;;3.40;;
15112;SDS011;7657;50.140;7.076;2022-12-07T08:45:15;4.23;;;3.23;;
15112;SDS011;7657;50.140;7.076;2022-12-07T08:47:43;5.77;;;3.80;;
15112;SDS011;7657;50.140;7.076;2022-12-07T08:50:15;6.43;;;3.97;;
15112;SDS011;7657;50.140;7.076;2022-12-07T08:52:43;4.37;;;3.30;;
15112;SDS011;7657;50.140;7.076;2022-12-07T08:55:10;4.90;;;3.93;;
15112;SDS011;7657;50.140;7.076;2022-12-07T08:57:38;9.30;;;4.20;;
15112;SDS011;7657;50.140;7.076;2022-12-07T09:00:06;6.10;;;4.03;;
15112;SDS011;7657;50.140;7.076;2022-12-07T09:02:33;5.70;;;4.23;;
15112;SDS011;7657;50.140;7.076;2022-12-07T09:05:01;6.33;;;4.20;;
15112;SDS011;7657;50.140;7.076;2022-12-07T09:07:29;7.60;;;4.60;;
15112;SDS011;7657;50.140;7.076;2022-12-07T09:09:58;6.40;;;4.07;;
15112;SDS011;7657;50.140;7.076;2022-12-07T09:12:25;7.50;;;4.70;;
15112;SDS011;7657;50.140;7.076;2022-12-07T09:14:52;7.37;;;4.60;;
15112;SDS011;7657;50.140;7.076;2022-12-07T09:17:18;6.60;;;4.93;;
15112;SDS011;7657;50.140;7.076;2022-12-07T09:19:45;7.80;;;4.53;;
15112;SDS011;7657;50.140;7.076;2022-12-07T09:22:12;6.73;;;4.13;;
15112;SDS011;7657;50.140;7.076;2022-12-07T09:24:41;7.57;;;4.53;;
15112;SDS011;7657;50.140;7.076;2022-12-07T09:27:08;6.13;;;3.90;;
15112;SDS011;7657;50.140;7.076;2022-12-07T09:29:35;5.80;;;4.30;;
15112;SDS011;7657;50.140;7.076;2022-12-07T09:32:03;5.90;;;4.10;;
15112;SDS011;7657;50.140;7.076;2022-12-07T09:34:30;7.83;;;4.43;;
15112;SDS011;7657;50.140;7.076;2022-12-07T09:36:57;6.93;;;4.60;;
15112;SDS011;7657;50.140;7.076;2022-12-07T09:39:27;7.13;;;4.87;;
15112;SDS011;7657;50.140;7.076;2022-12-07T09:41:56;7.37;;;4.23;;
15112;SDS011;7657;50.140;7.076;2022-12-07T09:44:25;6.43;;;3.97;;
15112;SDS011;7657;50.140;7.076;2022-12-07T09:46:53;7.77;;;4.37;;
15112;SDS011;7657;50.140;7.076;2022-12-07T09:49:22;6.73;;;4.10;;
15112;SDS011;7657;50.140;7.076;2022-12-07T09:51:59;5.60;;;3.73;;
15112;SDS011;7657;50.140;7.076;2022-12-07T09:54:28;5.87;;;3.90;;
15112;SDS011;7657;50.140;7.076;2022-12-07T09:56:58;6.87;;;3.27;;
15112;SDS011;7657;50.140;7.076;2022-12-07T09:59:25;4.83;;;2.93;;
15112;SDS011;7657;50.140;7.076;2022-12-07T10:01:52;4.37;;;2.87;;
15112;SDS011;7657;50.140;7.076;2022-12-07T10:04:21;3.87;;;2.73;;
15112;SDS011;7657;50.140;7.076;2022-12-07T10:06:50;5.77;;;2.40;;
15112;SDS011;7657;50.140;7.076;2022-12-07T10:09:18;4.07;;;2.97;;
15112;SDS011;7657;50.140;7.076;2022-12-07T10:12:02;4.23;;;3.33;;
15112;SDS011;7657;50.140;7.076;2022-12-07T10:14:31;5.63;;;2.97;;
15112;SDS011;7657;50.140;7.076;2022-12-07T10:17:00;5.20;;;2.50;;
15112;SDS011;7657;50.140;7.076;2022-12-07T10:19:28;3.07;;;2.27;;
15112;SDS011;7657;50.140;7.076;2022-12-07T10:22:04;3.20;;;2.20;;
15112;SDS011;7657;50.140;7.076;2022-12-07T10:24:37;2.57;;;1.90;;
15112;SDS011;7657;50.140;7.076;2022-12-07T10:27:10;3.93;;;2.40;;
15112;SDS011;7657;50.140;7.076;2022-12-07T10:29:47;4.87;;;2.17;;
15112;SDS011;7657;50.140;7.076;2022-12-07T10:32:26;3.57;;;2.40;;
15112;SDS011;7657;50.140;7.076;2022-12-07T10:35:15;4.27;;;2.00;;
15112;SDS011;7657;50.140;7.076;2022-12-07T10:37:46;5.53;;;3.00;;
15112;SDS011;7657;50.140;7.076;2022-12-07T10:40:27;5.37;;;2.67;;
15112;SDS011;7657;50.140;7.076;2022-12-07T10:43:05;3.57;;;2.00;;
15112;SDS011;7657;50.140;7.076;2022-12-07T10:45:43;2.17;;;1.90;;
15112;SDS011;7657;50.140;7.076;2022-12-07T10:48:33;4.27;;;2.03;;
15112;SDS011;7657;50.140;7.076;2022-12-07T10:51:09;2.83;;;1.90;;
15112;SDS011;7657;50.140;7.076;2022-12-07T10:53:54;2.67;;;1.97;;
15112;SDS011;7657;50.140;7.076;2022-12-07T10:56:33;2.10;;;1.77;;
15112;SDS011;7657;50.140;7.076;2022-12-07T10:59:23;6.63;;;2.13;;
15112;SDS011;7657;50.140;7.076;2022-12-07T11:02:08;3.77;;;1.83;;
15112;SDS011;7657;50.140;7.076;2022-12-07T11:04:53;2.13;;;1.70;;
15112;SDS011;7657;50.140;7.076;2022-12-07T11:07:31;3.27;;;1.63;;
15112;SDS011;7657;50.140;7.076;2022-12-07T11:10:08;2.30;;;1.70;;
15112;SDS011;7657;50.140;7.076;2022-12-07T11:12:45;2.60;;;1.80;;
15112;SDS011;7657;50.140;7.076;2022-12-07T11:15:28;4.20;;;2.00;;
15112;SDS011;7657;50.140;7.076;2022-12-07T11:18:06;3.17;;;2.00;;
15112;SDS011;7657;50.140;7.076;2022-12-07T11:20:40;1.93;;;1.63;;
15112;SDS011;7657;50.140;7.076;2022-12-07T11:23:13;3.03;;;1.90;;
15112;SDS011;7657;50.140;7.076;2022-12-07T11:25:49;3.73;;;2.80;;
15112;SDS011;7657;50.140;7.076;2022-12-07T11:28:29;6.73;;;4.00;;
15112;SDS011;7657;50.140;7.076;2022-12-07T11:31:12;2.83;;;2.10;;
15112;SDS011;7657;50.140;7.076;2022-12-07T11:33:46;4.27;;;2.30;;
15112;SDS011;7657;50.140;7.076;2022-12-07T11:36:22;4.30;;;3.10;;
15112;SDS011;7657;50.140;7.076;2022-12-07T11:39:00;3.47;;;1.90;;
15112;SDS011;7657;50.140;7.076;2022-12-07T11:41:30;2.57;;;1.80;;
15112;SDS011;7657;50.140;7.076;2022-12-07T11:44:01;2.67;;;1.87;;
15112;SDS011;7657;50.140;7.076;2022-12-07T11:46:40;2.63;;;1.80;;
15112;SDS011;7657;50.140;7.076;2022-12-07T11:49:14;2.63;;;1.77;;
15112;SDS011;7657;50.140;7.076;2022-12-07T11:51:47;2.23;;;1.40;;
15112;SDS011;7657;50.140;7.076;2022-12-07T11:54:18;2.60;;;1.30;;
15112;SDS011;7657;50.140;7.076;2022-12-07T11:56:50;2.50;;;1.43;;
15112;SDS011;7657;50.140;7.076;2022-12-07T11:59:22;2.20;;;1.30;;
15112;SDS011;7657;50.140;7.076;2022-12-07T12:01:55;2.67;;;1.33;;
15112;SDS011;7657;50.140;7.076;2022-12-07T12:04:29;4.97;;;1.67;;
15112;SDS011;7657;50.140;7.076;2022-12-07T12:07:00;2.07;;;1.50;;
15112;SDS011;7657;50.140;7.076;2022-12-07T12:09:28;6.90;;;1.50;;
15112;SDS011;7657;50.140;7.076;2022-12-07T12:12:10;2.60;;;1.50;;
15112;SDS011;7657;50.140;7.076;2022-12-07T12:14:48;2.23;;;1.47;;
15112;SDS011;7657;50.140;7.076;2022-12-07T12:17:32;2.43;;;1.47;;
15112;SDS011;7657;50.140;7.076;2022-12-07T12:20:21;3.20;;;1.23;;
15112;SDS011;7657;50.140;7.076;2022-12-07T12:22:53;3.30;;;1.37;;
15112;SDS011;7657;50.140;7.076;2022-12-07T12:25:24;2.53;;;1.50;;
15112;SDS011;7657;50.140;7.076;2022-12-07T12:27:54;3.40;;;1.70;;
15112;SDS011;7657;50.140;7.076;2022-12-07T12:30:34;2.83;;;1.53;;
15112;SDS011;7657;50.140;7.076;2022-12-07T12:33:13;2.77;;;0.73;;
15112;SDS011;7657;50.140;7.076;2022-12-07T12:35:46;4.70;;;1.40;;
15112;SDS011;7657;50.140;7.076;2022-12-07T12:38:34;5.57;;;1.70;;
15112;SDS011;7657;50.140;7.076;2022-12-07T12:50:26;1.80;;;1.07;;
15112;SDS011;7657;50.140;7.076;2022-12-07T12:52:55;2.87;;;1.37;;
15112;SDS011;7657;50.140;7.076;2022-12-07T12:58:42;1.40;;;1.30;;
15112;SDS011;7657;50.140;7.076;2022-12-07T13:01:36;2.90;;;1.50;;
15112;SDS011;7657;50.140;7.076;2022-12-07T13:07:08;3.60;;;1.80;;
15112;SDS011;7657;50.140;7.076;2022-12-07T13:09:41;5.90;;;1.80;;
15112;SDS011;7657;50.140;7.076;2022-12-07T13:12:12;3.33;;;2.03;;
15112;SDS011;7657;50.140;7.076;2022-12-07T13:20:40;3.37;;;1.80;;
15112;SDS011;7657;50.140;7.076;2022-12-07T13:23:16;3.10;;;1.90;;
15112;SDS011;7657;50.140;7.076;2022-12-07T13:25:51;4.37;;;2.30;;
15112;SDS011;7657;50.140;7.076;2022-12-07T13:28:31;3.90;;;2.10;;
15112;SDS011;7657;50.140;7.076;2022-12-07T13:31:09;7.80;;;2.40;;
15112;SDS011;7657;50.140;7.076;2022-12-07T13:33:45;4.40;;;2.30;;
15112;SDS011;7657;50.140;7.076;2022-12-07T13:36:20;3.07;;;2.00;;
15112;SDS011;7657;50.140;7.076;2022-12-07T13:38:50;3.10;;;2.20;;
15112;SDS011;7657;50.140;7.076;2022-12-07T13:41:19;5.57;;;2.40;;
15112;SDS011;7657;50.140;7.076;2022-12-07T13:43:48;4.33;;;2.30;;
15112;SDS011;7657;50.140;7.076;2022-12-07T13:46:19;5.30;;;2.30;;
15112;SDS011;7657;50.140;7.076;2022-12-07T13:48:51;7.23;;;2.50;;
15112;SDS011;7657;50.140;7.076;2022-12-07T13:51:21;3.63;;;2.00;;
15112;SDS011;7657;50.140;7.076;2022-12-07T13:53:51;5.60;;;2.50;;
15112;SDS011;7657;50.140;7.076;2022-12-07T13:56:20;3.37;;;1.90;;
15112;SDS011;7657;50.140;7.076;2022-12-07T13:58:50;2.77;;;1.70;;
15112;SDS011;7657;50.140;7.076;2022-12-07T14:01:18;4.37;;;2.17;;
15112;SDS011;7657;50.140;7.076;2022-12-07T14:03:45;2.33;;;1.83;;
15112;SDS011;7657;50.140;7.076;2022-12-07T14:09:07;3.77;;;2.20;;
15112;SDS011;7657;50.140;7.076;2022-12-07T14:11:35;5.20;;;2.47;;
15112;SDS011;7657;50.140;7.076;2022-12-07T14:14:03;4.53;;;2.70;;
15112;SDS011;7657;50.140;7.076;2022-12-07T14:16:34;3.60;;;2.40;;
15112;SDS011;7657;50.140;7.076;2022-12-07T14:19:03;2.97;;;1.87;;
15112;SDS011;7657;50.140;7.076;2022-12-07T14:22:05;2.77;;;2.07;;
15112;SDS011;7657;50.140;7.076;2022-12-07T14:24:40;7.07;;;2.77;;
15112;SDS011;7657;50.140;7.076;2022-12-07T14:27:15;4.20;;;1.63;;
15112;SDS011;7657;50.140;7.076;2022-12-07T14:29:44;4.07;;;2.13;;
15112;SDS011;7657;50.140;7.076;2022-12-07T14:32:17;3.57;;;1.80;;
15112;SDS011;7657;50.140;7.076;2022-12-07T14:34:54;7.83;;;4.00;;
15112;SDS011;7657;50.140;7.076;2022-12-07T14:37:36;32.23;;;17.47;;
15112;SDS011;7657;50.140;7.076;2022-12-07T14:40:04;2.87;;;2.00;;
15112;SDS011;7657;50.140;7.076;2022-12-07T14:42:32;3.50;;;2.23;;
15112;SDS011;7657;50.140;7.076;2022-12-07T14:45:00;2.13;;;1.93;;
15112;SDS011;7657;50.140;7.076;2022-12-07T14:47:28;2.17;;;1.97;;
15112;SDS011;7657;50.140;7.076;2022-12-07T14:49:55;3.37;;;1.47;;
15112;SDS011;7657;50.140;7.076;2022-12-07T14:52:23;3.57;;;1.87;;
15112;SDS011;7657;50.140;7.076;2022-12-07T14:54:53;3.17;;;1.90;;
15112;SDS011;7657;50.140;7.076;2022-12-07T14:57:20;3.47;;;1.80;;
15112;SDS011;7657;50.140;7.076;2022-12-07T14:59:47;2.80;;;1.90;;
15112;SDS011;7657;50.140;7.076;2022-12-07T15:02:14;2.87;;;1.90;;
15112;SDS011;7657;50.140;7.076;2022-12-07T15:04:42;2.83;;;1.80;;
15112;SDS011;7657;50.140;7.076;2022-12-07T15:07:14;2.57;;;1.97;;
15112;SDS011;7657;50.140;7.076;2022-12-07T15:09:44;3.90;;;2.20;;
15112;SDS011;7657;50.140;7.076;2022-12-07T15:12:11;3.90;;;2.00;;
15112;SDS011;7657;50.140;7.076;2022-12-07T15:14:38;3.23;;;2.40;;
15112;SDS011;7657;50.140;7.076;2022-12-07T15:17:05;3.67;;;1.70;;
15112;SDS011;7657;50.140;7.076;2022-12-07T15:19:32;2.63;;;2.10;;
15112;SDS011;7657;50.140;7.076;2022-12-07T15:22:00;2.30;;;2.03;;
15112;SDS011;7657;50.140;7.076;2022-12-07T15:24:27;2.53;;;2.10;;
15112;SDS011;7657;50.140;7.076;2022-12-07T15:26:54;3.60;;;2.73;;
15112;SDS011;7657;50.140;7.076;2022-12-07T15:29:21;3.23;;;2.07;;
15112;SDS011;7657;50.140;7.076;2022-12-07T15:31:48;3.33;;;2.30;;
15112;SDS011;7657;50.140;7.076;2022-12-07T15:34:15;4.77;;;1.97;;
15112;SDS011;7657;50.140;7.076;2022-12-07T15:36:42;3.73;;;2.40;;
15112;SDS011;7657;50.140;7.076;2022-12-07T15:39:10;4.53;;;2.60;;